sensor_id;sensor_type;location;lat;lon;timestamp;temperature;humidity
13589;DHT22;6865;52.552;13.434;2023-04-24T00:01:34;12.30;99.90
13589;DHT22;6865;52.552;13.434;2023-04-24T00:04:03;12.30;99.90
13589;DHT22;6865;52.552;13.434;2023-04-24T00:06:30;12.30;99.90
13589;DHT22;6865;52.552;13.434;2023-04-24T00:09:00;12.30;99.90
13589;DHT22;6865;52.552;13.434;2023-04-24T00:11:27;12.30;99.90
13589;DHT22;6865;52.552;13.434;2023-04-24T00:13:54;12.20;99.90
13589;DHT22;6865;52.552;13.434;2023-04-24T00:16:21;12.30;99.90
13589;DHT22;6865;52.552;13.434;2023-04-24T00:18:48;12.20;99.90
13589;DHT22;6865;52.552;13.434;2023-04-24T00:21:15;12.40;99.90
13589;DHT22;6865;52.552;13.434;2023-04-24T00:23:44;12.20;99.90
13589;DHT22;6865;52.552;13.434;2023-04-24T00:26:10;12.20;99.90
13589;DHT22;6865;52.552;13.434;2023-04-24T00:28:37;12.10;99.90
13589;DHT22;6865;52.552;13.434;2023-04-24T00:31:04;12.10;99.90
13589;DHT22;6865;52.552;13.434;2023-04-24T00:33:30;12.00;99.90
13589;DHT22;6865;52.552;13.434;2023-04-24T00:35:57;12.00;99.90
13589;DHT22;6865;52.552;13.434;2023-04-24T00:38:24;12.00;99.90
13589;DHT22;6865;52.552;13.434;2023-04-24T00:40:51;11.90;99.90
13589;DHT22;6865;52.552;13.434;2023-04-24T00:43:17;12.80;99.90
13589;DHT22;6865;52.552;13.434;2023-04-24T00:45:44;11.80;99.90
13589;DHT22;6865;52.552;13.434;2023-04-24T00:48:11;11.80;99.90
13589;DHT22;6865;52.552;13.434;2023-04-24T00:50:38;11.80;99.90
13589;DHT22;6865;52.552;13.434;2023-04-24T00:53:05;11.80;99.90
13589;DHT22;6865;52.552;13.434;2023-04-24T00:55:32;11.80;99.90
13589;DHT22;6865;52.552;13.434;2023-04-24T00:57:59;11.70;99.90
13589;DHT22;6865;52.552;13.434;2023-04-24T01:00:26;11.70;99.90
13589;DHT22;6865;52.552;13.434;2023-04-24T01:02:53;11.70;99.90
13589;DHT22;6865;52.552;13.434;2023-04-24T01:05:20;11.70;99.90
13589;DHT22;6865;52.552;13.434;2023-04-24T01:07:47;11.70;99.90
13589;DHT22;6865;52.552;13.434;2023-04-24T01:10:16;11.70;99.90
13589;DHT22;6865;52.552;13.434;2023-04-24T01:12:44;11.70;99.90
13589;DHT22;6865;52.552;13.434;2023-04-24T01:15:10;11.70;99.90
13589;DHT22;6865;52.552;13.434;2023-04-24T01:17:37;11.70;99.90
13589;DHT22;6865;52.552;13.434;2023-04-24T01:20:05;11.60;99.90
13589;DHT22;6865;52.552;13.434;2023-04-24T01:22:35;11.60;99.90
13589;DHT22;6865;52.552;13.434;2023-04-24T01:25:03;11.70;99.90
13589;DHT22;6865;52.552;13.434;2023-04-24T01:27:30;11.70;99.90
13589;DHT22;6865;52.552;13.434;2023-04-24T01:29:57;11.70;99.90
13589;DHT22;6865;52.552;13.434;2023-04-24T01:32:25;11.70;99.90
13589;DHT22;6865;52.552;13.434;2023-04-24T01:34:52;11.70;99.90
13589;DHT22;6865;52.552;13.434;2023-04-24T01:37:18;11.60;99.90
13589;DHT22;6865;52.552;13.434;2023-04-24T01:39:45;11.80;99.90
13589;DHT22;6865;52.552;13.434;2023-04-24T01:42:12;11.90;99.90
13589;DHT22;6865;52.552;13.434;2023-04-24T01:44:40;11.90;99.90
13589;DHT22;6865;52.552;13.434;2023-04-24T01:47:07;11.90;99.90
13589;DHT22;6865;52.552;13.434;2023-04-24T01:49:33;11.90;99.90
13589;DHT22;6865;52.552;13.434;2023-04-24T01:52:00;12.00;99.90
13589;DHT22;6865;52.552;13.434;2023-04-24T01:54:27;12.10;99.90
13589;DHT22;6865;52.552;13.434;2023-04-24T01:56:53;12.00;99.90
13589;DHT22;6865;52.552;13.434;2023-04-24T01:59:20;12.00;99.90
13589;DHT22;6865;52.552;13.434;2023-04-24T02:01:48;12.00;99.90
13589;DHT22;6865;52.552;13.434;2023-04-24T02:04:14;11.90;99.90
13589;DHT22;6865;52.552;13.434;2023-04-24T02:06:42;11.90;99.90
13589;DHT22;6865;52.552;13.434;2023-04-24T02:09:08;11.90;99.90
13589;DHT22;6865;52.552;13.434;2023-04-24T02:11:35;11.80;99.90
13589;DHT22;6865;52.552;13.434;2023-04-24T02:14:01;11.90;99.90
13589;DHT22;6865;52.552;13.434;2023-04-24T02:16:28;11.90;99.90
13589;DHT22;6865;52.552;13.434;2023-04-24T02:18:59;11.70;99.90
13589;DHT22;6865;52.552;13.434;2023-04-24T02:21:25;11.80;99.90
13589;DHT22;6865;52.552;13.434;2023-04-24T02:23:54;11.80;99.90
13589;DHT22;6865;52.552;13.434;2023-04-24T02:26:20;11.80;99.90
13589;DHT22;6865;52.552;13.434;2023-04-24T02:28:47;11.90;99.90
13589;DHT22;6865;52.552;13.434;2023-04-24T02:31:14;11.90;99.90
13589;DHT22;6865;52.552;13.434;2023-04-24T02:33:40;11.90;99.90
13589;DHT22;6865;52.552;13.434;2023-04-24T02:36:07;11.90;99.90
13589;DHT22;6865;52.552;13.434;2023-04-24T02:38:34;11.90;99.90
13589;DHT22;6865;52.552;13.434;2023-04-24T02:41:01;11.90;99.90
13589;DHT22;6865;52.552;13.434;2023-04-24T02:43:28;11.80;99.90
13589;DHT22;6865;52.552;13.434;2023-04-24T02:45:55;11.60;99.90
13589;DHT22;6865;52.552;13.434;2023-04-24T02:48:21;11.60;99.90
13589;DHT22;6865;52.552;13.434;2023-04-24T02:50:48;11.70;99.90
13589;DHT22;6865;52.552;13.434;2023-04-24T02:53:14;11.80;99.90
13589;DHT22;6865;52.552;13.434;2023-04-24T02:55:41;11.80;99.90
13589;DHT22;6865;52.552;13.434;2023-04-24T02:58:08;11.80;99.90
13589;DHT22;6865;52.552;13.434;2023-04-24T03:00:35;11.90;99.90
13589;DHT22;6865;52.552;13.434;2023-04-24T03:03:01;11.90;99.90
13589;DHT22;6865;52.552;13.434;2023-04-24T03:05:29;11.90;99.90
13589;DHT22;6865;52.552;13.434;2023-04-24T03:07:57;11.90;99.90
13589;DHT22;6865;52.552;13.434;2023-04-24T03:10:24;11.80;99.90
13589;DHT22;6865;52.552;13.434;2023-04-24T03:12:50;11.80;99.90
13589;DHT22;6865;52.552;13.434;2023-04-24T03:15:17;11.90;99.90
13589;DHT22;6865;52.552;13.434;2023-04-24T03:17:44;11.90;99.90
13589;DHT22;6865;52.552;13.434;2023-04-24T03:20:11;11.80;99.90
13589;DHT22;6865;52.552;13.434;2023-04-24T03:22:37;11.80;99.90
13589;DHT22;6865;52.552;13.434;2023-04-24T03:25:04;11.80;99.90
13589;DHT22;6865;52.552;13.434;2023-04-24T03:27:31;11.90;99.90
13589;DHT22;6865;52.552;13.434;2023-04-24T03:29:58;11.90;99.90
13589;DHT22;6865;52.552;13.434;2023-04-24T03:32:24;12.00;99.90
13589;DHT22;6865;52.552;13.434;2023-04-24T03:34:51;12.00;99.90
13589;DHT22;6865;52.552;13.434;2023-04-24T03:37:18;12.10;99.90
13589;DHT22;6865;52.552;13.434;2023-04-24T03:39:45;12.10;99.90
13589;DHT22;6865;52.552;13.434;2023-04-24T03:42:11;12.10;99.90
13589;DHT22;6865;52.552;13.434;2023-04-24T03:44:38;12.10;99.90
13589;DHT22;6865;52.552;13.434;2023-04-24T03:47:04;12.20;99.90
13589;DHT22;6865;52.552;13.434;2023-04-24T03:49:31;12.20;99.90
13589;DHT22;6865;52.552;13.434;2023-04-24T03:51:58;12.20;99.90
13589;DHT22;6865;52.552;13.434;2023-04-24T03:54:24;12.20;99.90
13589;DHT22;6865;52.552;13.434;2023-04-24T03:56:51;12.20;99.90
13589;DHT22;6865;52.552;13.434;2023-04-24T03:59:18;12.20;99.90
13589;DHT22;6865;52.552;13.434;2023-04-24T04:01:44;12.20;99.90
13589;DHT22;6865;52.552;13.434;2023-04-24T04:04:11;12.20;99.90
13589;DHT22;6865;52.552;13.434;2023-04-24T04:06:38;12.20;99.90
13589;DHT22;6865;52.552;13.434;2023-04-24T04:09:05;12.20;99.90
13589;DHT22;6865;52.552;13.434;2023-04-24T04:11:32;12.20;99.90
13589;DHT22;6865;52.552;13.434;2023-04-24T04:13:58;12.20;99.90
13589;DHT22;6865;52.552;13.434;2023-04-24T04:16:25;12.00;99.90
13589;DHT22;6865;52.552;13.434;2023-04-24T04:18:52;12.30;99.90
13589;DHT22;6865;52.552;13.434;2023-04-24T04:21:18;12.30;99.90
13589;DHT22;6865;52.552;13.434;2023-04-24T04:23:45;12.30;99.90
13589;DHT22;6865;52.552;13.434;2023-04-24T04:26:11;12.40;99.90
13589;DHT22;6865;52.552;13.434;2023-04-24T04:28:39;12.40;99.90
13589;DHT22;6865;52.552;13.434;2023-04-24T04:31:06;12.40;99.90
13589;DHT22;6865;52.552;13.434;2023-04-24T04:33:34;12.40;99.90
13589;DHT22;6865;52.552;13.434;2023-04-24T04:36:02;12.40;99.90
13589;DHT22;6865;52.552;13.434;2023-04-24T04:38:30;12.40;99.90
13589;DHT22;6865;52.552;13.434;2023-04-24T04:40:56;12.40;99.90
13589;DHT22;6865;52.552;13.434;2023-04-24T04:43:24;12.40;99.90
13589;DHT22;6865;52.552;13.434;2023-04-24T04:45:51;12.40;99.90
13589;DHT22;6865;52.552;13.434;2023-04-24T04:48:18;12.50;99.90
13589;DHT22;6865;52.552;13.434;2023-04-24T04:50:45;12.40;99.90
13589;DHT22;6865;52.552;13.434;2023-04-24T04:53:12;12.50;99.90
13589;DHT22;6865;52.552;13.434;2023-04-24T04:55:38;12.50;99.90
13589;DHT22;6865;52.552;13.434;2023-04-24T04:58:05;12.60;99.90
13589;DHT22;6865;52.552;13.434;2023-04-24T05:00:32;12.60;99.90
13589;DHT22;6865;52.552;13.434;2023-04-24T05:03:02;12.60;99.90
13589;DHT22;6865;52.552;13.434;2023-04-24T05:05:45;12.50;99.90
13589;DHT22;6865;52.552;13.434;2023-04-24T05:08:12;12.50;99.90
13589;DHT22;6865;52.552;13.434;2023-04-24T05:10:53;12.60;99.90
13589;DHT22;6865;52.552;13.434;2023-04-24T05:13:19;12.60;99.90
13589;DHT22;6865;52.552;13.434;2023-04-24T05:15:57;12.60;99.90
13589;DHT22;6865;52.552;13.434;2023-04-24T05:18:24;12.60;99.90
13589;DHT22;6865;52.552;13.434;2023-04-24T05:20:51;12.70;99.90
13589;DHT22;6865;52.552;13.434;2023-04-24T05:23:17;12.70;99.90
13589;DHT22;6865;52.552;13.434;2023-04-24T05:25:44;12.70;99.90
13589;DHT22;6865;52.552;13.434;2023-04-24T05:28:11;12.80;99.90
13589;DHT22;6865;52.552;13.434;2023-04-24T05:30:37;12.80;99.90
13589;DHT22;6865;52.552;13.434;2023-04-24T05:33:04;12.90;99.90
13589;DHT22;6865;52.552;13.434;2023-04-24T05:35:31;13.10;99.90
13589;DHT22;6865;52.552;13.434;2023-04-24T05:37:57;13.30;99.90
13589;DHT22;6865;52.552;13.434;2023-04-24T05:40:24;13.40;99.90
13589;DHT22;6865;52.552;13.434;2023-04-24T05:42:51;13.50;99.90
13589;DHT22;6865;52.552;13.434;2023-04-24T05:45:18;13.60;99.90
13589;DHT22;6865;52.552;13.434;2023-04-24T05:47:44;13.90;99.90
13589;DHT22;6865;52.552;13.434;2023-04-24T05:50:11;14.40;99.90
13589;DHT22;6865;52.552;13.434;2023-04-24T05:52:38;14.60;99.90
13589;DHT22;6865;52.552;13.434;2023-04-24T05:55:05;14.60;99.90
13589;DHT22;6865;52.552;13.434;2023-04-24T05:57:32;14.60;99.90
13589;DHT22;6865;52.552;13.434;2023-04-24T05:59:58;14.60;99.90
13589;DHT22;6865;52.552;13.434;2023-04-24T06:02:25;14.40;99.90
13589;DHT22;6865;52.552;13.434;2023-04-24T06:04:52;14.30;99.90
13589;DHT22;6865;52.552;13.434;2023-04-24T06:07:19;14.30;99.90
13589;DHT22;6865;52.552;13.434;2023-04-24T06:09:46;14.00;99.90
13589;DHT22;6865;52.552;13.434;2023-04-24T06:12:13;14.30;99.90
13589;DHT22;6865;52.552;13.434;2023-04-24T06:14:40;14.50;99.90
13589;DHT22;6865;52.552;13.434;2023-04-24T06:17:06;14.50;99.90
13589;DHT22;6865;52.552;13.434;2023-04-24T06:19:33;14.70;99.90
13589;DHT22;6865;52.552;13.434;2023-04-24T06:21:59;15.00;99.90
13589;DHT22;6865;52.552;13.434;2023-04-24T06:24:29;14.90;99.90
13589;DHT22;6865;52.552;13.434;2023-04-24T06:26:55;14.80;99.90
13589;DHT22;6865;52.552;13.434;2023-04-24T06:29:23;15.00;99.90
13589;DHT22;6865;52.552;13.434;2023-04-24T06:31:50;14.80;99.90
13589;DHT22;6865;52.552;13.434;2023-04-24T06:34:16;14.50;99.90
13589;DHT22;6865;52.552;13.434;2023-04-24T06:36:43;14.60;99.90
13589;DHT22;6865;52.552;13.434;2023-04-24T06:39:10;14.70;99.90
13589;DHT22;6865;52.552;13.434;2023-04-24T06:41:36;14.50;99.90
13589;DHT22;6865;52.552;13.434;2023-04-24T06:44:03;14.40;99.90
13589;DHT22;6865;52.552;13.434;2023-04-24T06:46:29;14.60;99.90
13589;DHT22;6865;52.552;13.434;2023-04-24T06:48:56;14.80;99.90
13589;DHT22;6865;52.552;13.434;2023-04-24T06:51:23;14.80;99.90
13589;DHT22;6865;52.552;13.434;2023-04-24T06:53:52;14.80;99.90
13589;DHT22;6865;52.552;13.434;2023-04-24T06:56:19;15.00;99.90
13589;DHT22;6865;52.552;13.434;2023-04-24T06:58:46;15.40;99.90
13589;DHT22;6865;52.552;13.434;2023-04-24T07:01:13;15.90;99.90
13589;DHT22;6865;52.552;13.434;2023-04-24T07:03:40;16.40;99.90
13589;DHT22;6865;52.552;13.434;2023-04-24T07:06:06;16.30;99.90
13589;DHT22;6865;52.552;13.434;2023-04-24T07:08:33;16.80;99.90
13589;DHT22;6865;52.552;13.434;2023-04-24T07:11:00;16.40;99.90
13589;DHT22;6865;52.552;13.434;2023-04-24T07:13:27;16.40;99.90
13589;DHT22;6865;52.552;13.434;2023-04-24T07:15:54;16.80;99.90
13589;DHT22;6865;52.552;13.434;2023-04-24T07:18:21;17.20;99.90
13589;DHT22;6865;52.552;13.434;2023-04-24T07:20:48;17.20;99.90
13589;DHT22;6865;52.552;13.434;2023-04-24T07:23:17;17.30;99.90
13589;DHT22;6865;52.552;13.434;2023-04-24T07:25:44;17.50;99.90
13589;DHT22;6865;52.552;13.434;2023-04-24T07:28:10;17.80;99.90
13589;DHT22;6865;52.552;13.434;2023-04-24T07:30:37;17.70;99.90
13589;DHT22;6865;52.552;13.434;2023-04-24T07:33:04;17.40;99.90
13589;DHT22;6865;52.552;13.434;2023-04-24T07:35:30;16.90;99.90
13589;DHT22;6865;52.552;13.434;2023-04-24T07:37:57;16.60;99.90
13589;DHT22;6865;52.552;13.434;2023-04-24T07:40:24;16.70;99.90
13589;DHT22;6865;52.552;13.434;2023-04-24T07:42:50;16.40;99.90
13589;DHT22;6865;52.552;13.434;2023-04-24T07:45:17;16.20;99.90
13589;DHT22;6865;52.552;13.434;2023-04-24T07:47:44;16.30;99.90
13589;DHT22;6865;52.552;13.434;2023-04-24T07:50:12;16.40;99.90
13589;DHT22;6865;52.552;13.434;2023-04-24T07:52:39;16.40;99.90
13589;DHT22;6865;52.552;13.434;2023-04-24T07:55:06;16.80;99.90
13589;DHT22;6865;52.552;13.434;2023-04-24T07:57:33;16.50;99.90
13589;DHT22;6865;52.552;13.434;2023-04-24T08:00:00;16.50;99.90
13589;DHT22;6865;52.552;13.434;2023-04-24T08:02:26;16.40;99.90
13589;DHT22;6865;52.552;13.434;2023-04-24T08:04:53;16.30;99.90
13589;DHT22;6865;52.552;13.434;2023-04-24T08:07:21;16.30;99.90
13589;DHT22;6865;52.552;13.434;2023-04-24T08:09:48;16.40;99.90
13589;DHT22;6865;52.552;13.434;2023-04-24T08:12:14;16.50;99.90
13589;DHT22;6865;52.552;13.434;2023-04-24T08:14:41;16.70;99.90
13589;DHT22;6865;52.552;13.434;2023-04-24T08:17:08;16.80;99.90
13589;DHT22;6865;52.552;13.434;2023-04-24T08:19:35;16.90;99.90
13589;DHT22;6865;52.552;13.434;2023-04-24T08:22:02;16.90;99.90
13589;DHT22;6865;52.552;13.434;2023-04-24T08:24:30;16.80;99.90
13589;DHT22;6865;52.552;13.434;2023-04-24T08:26:57;16.90;99.80
13589;DHT22;6865;52.552;13.434;2023-04-24T08:29:24;16.80;99.90
13589;DHT22;6865;52.552;13.434;2023-04-24T08:31:51;16.70;99.70
13589;DHT22;6865;52.552;13.434;2023-04-24T08:34:18;16.70;99.90
13589;DHT22;6865;52.552;13.434;2023-04-24T08:36:44;16.90;99.90
13589;DHT22;6865;52.552;13.434;2023-04-24T08:39:13;17.20;98.50
13589;DHT22;6865;52.552;13.434;2023-04-24T08:41:42;17.30;97.50
13589;DHT22;6865;52.552;13.434;2023-04-24T08:44:12;17.30;97.30
13589;DHT22;6865;52.552;13.434;2023-04-24T08:46:43;17.10;97.50
13589;DHT22;6865;52.552;13.434;2023-04-24T08:49:15;17.10;97.50
13589;DHT22;6865;52.552;13.434;2023-04-24T08:51:45;17.00;98.10
13589;DHT22;6865;52.552;13.434;2023-04-24T08:54:13;16.90;97.80
13589;DHT22;6865;52.552;13.434;2023-04-24T08:56:43;17.00;97.70
13589;DHT22;6865;52.552;13.434;2023-04-24T08:59:10;17.20;97.60
13589;DHT22;6865;52.552;13.434;2023-04-24T09:01:38;17.20;97.10
13589;DHT22;6865;52.552;13.434;2023-04-24T09:04:08;17.20;97.20
13589;DHT22;6865;52.552;13.434;2023-04-24T09:06:37;17.50;97.20
13589;DHT22;6865;52.552;13.434;2023-04-24T09:09:03;17.70;96.40
13589;DHT22;6865;52.552;13.434;2023-04-24T09:11:31;17.30;96.20
13589;DHT22;6865;52.552;13.434;2023-04-24T09:13:59;17.30;96.20
13589;DHT22;6865;52.552;13.434;2023-04-24T09:16:27;17.20;95.80
13589;DHT22;6865;52.552;13.434;2023-04-24T09:18:55;17.40;95.90
13589;DHT22;6865;52.552;13.434;2023-04-24T09:21:22;17.30;95.80
13589;DHT22;6865;52.552;13.434;2023-04-24T09:24:00;17.40;95.50
13589;DHT22;6865;52.552;13.434;2023-04-24T09:26:30;17.30;95.10
13589;DHT22;6865;52.552;13.434;2023-04-24T09:28:58;17.20;95.30
13589;DHT22;6865;52.552;13.434;2023-04-24T09:31:27;17.40;95.20
13589;DHT22;6865;52.552;13.434;2023-04-24T09:33:56;17.40;95.10
13589;DHT22;6865;52.552;13.434;2023-04-24T09:36:41;17.40;95.50
13589;DHT22;6865;52.552;13.434;2023-04-24T09:39:13;17.10;96.30
13589;DHT22;6865;52.552;13.434;2023-04-24T09:41:47;16.70;98.10
13589;DHT22;6865;52.552;13.434;2023-04-24T09:44:16;16.60;98.80
13589;DHT22;6865;52.552;13.434;2023-04-24T09:46:45;16.70;98.80
13589;DHT22;6865;52.552;13.434;2023-04-24T09:49:14;16.90;98.90
13589;DHT22;6865;52.552;13.434;2023-04-24T09:51:42;17.20;99.20
13589;DHT22;6865;52.552;13.434;2023-04-24T09:54:17;17.50;99.10
13589;DHT22;6865;52.552;13.434;2023-04-24T09:56:46;17.60;99.40
13589;DHT22;6865;52.552;13.434;2023-04-24T09:59:14;17.60;99.30
13589;DHT22;6865;52.552;13.434;2023-04-24T10:01:41;17.70;99.40
13589;DHT22;6865;52.552;13.434;2023-04-24T10:04:20;17.70;99.70
13589;DHT22;6865;52.552;13.434;2023-04-24T10:06:48;17.70;99.40
13589;DHT22;6865;52.552;13.434;2023-04-24T10:09:20;18.00;98.90
13589;DHT22;6865;52.552;13.434;2023-04-24T10:11:50;18.30;98.10
13589;DHT22;6865;52.552;13.434;2023-04-24T10:14:27;18.00;97.90
13589;DHT22;6865;52.552;13.434;2023-04-24T10:16:55;18.10;97.80
13589;DHT22;6865;52.552;13.434;2023-04-24T10:19:25;18.30;97.30
13589;DHT22;6865;52.552;13.434;2023-04-24T10:21:52;18.10;97.00
13589;DHT22;6865;52.552;13.434;2023-04-24T10:24:20;18.30;97.00
13589;DHT22;6865;52.552;13.434;2023-04-24T10:26:48;18.60;96.60
13589;DHT22;6865;52.552;13.434;2023-04-24T10:29:18;18.30;96.90
13589;DHT22;6865;52.552;13.434;2023-04-24T10:31:45;18.60;96.80
13589;DHT22;6865;52.552;13.434;2023-04-24T10:34:15;18.90;96.20
13589;DHT22;6865;52.552;13.434;2023-04-24T10:36:46;18.80;96.30
13589;DHT22;6865;52.552;13.434;2023-04-24T10:39:14;18.40;96.80
13589;DHT22;6865;52.552;13.434;2023-04-24T10:41:42;18.30;97.00
13589;DHT22;6865;52.552;13.434;2023-04-24T10:44:10;18.40;96.20
13589;DHT22;6865;52.552;13.434;2023-04-24T10:46:38;18.30;96.30
13589;DHT22;6865;52.552;13.434;2023-04-24T10:49:06;18.30;96.60
13589;DHT22;6865;52.552;13.434;2023-04-24T10:51:47;18.00;96.90
13589;DHT22;6865;52.552;13.434;2023-04-24T10:54:29;17.70;97.40
13589;DHT22;6865;52.552;13.434;2023-04-24T11:00:13;17.80;97.50
13589;DHT22;6865;52.552;13.434;2023-04-24T11:02:41;17.90;97.30
13589;DHT22;6865;52.552;13.434;2023-04-24T11:05:16;17.80;96.80
13589;DHT22;6865;52.552;13.434;2023-04-24T11:08:12;17.50;96.60
13589;DHT22;6865;52.552;13.434;2023-04-24T11:10:43;17.50;97.20
13589;DHT22;6865;52.552;13.434;2023-04-24T11:13:13;17.50;97.40
13589;DHT22;6865;52.552;13.434;2023-04-24T11:15:41;17.60;97.60
13589;DHT22;6865;52.552;13.434;2023-04-24T11:18:15;17.90;97.60
13589;DHT22;6865;52.552;13.434;2023-04-24T11:20:43;18.10;96.70
13589;DHT22;6865;52.552;13.434;2023-04-24T11:23:12;18.20;96.50
13589;DHT22;6865;52.552;13.434;2023-04-24T11:25:39;18.40;96.20
13589;DHT22;6865;52.552;13.434;2023-04-24T11:28:05;18.60;95.50
13589;DHT22;6865;52.552;13.434;2023-04-24T11:30:32;18.30;95.70
13589;DHT22;6865;52.552;13.434;2023-04-24T11:33:05;18.10;95.60
13589;DHT22;6865;52.552;13.434;2023-04-24T11:35:38;18.40;95.80
13589;DHT22;6865;52.552;13.434;2023-04-24T11:38:06;18.30;95.60
13589;DHT22;6865;52.552;13.434;2023-04-24T11:40:51;18.10;95.70
13589;DHT22;6865;52.552;13.434;2023-04-24T11:43:18;17.80;96.30
13589;DHT22;6865;52.552;13.434;2023-04-24T11:45:49;17.80;96.50
13589;DHT22;6865;52.552;13.434;2023-04-24T11:48:20;17.60;96.60
13589;DHT22;6865;52.552;13.434;2023-04-24T11:50:50;17.40;98.40
13589;DHT22;6865;52.552;13.434;2023-04-24T11:53:19;17.20;99.60
13589;DHT22;6865;52.552;13.434;2023-04-24T11:55:47;17.10;99.90
13589;DHT22;6865;52.552;13.434;2023-04-24T11:58:13;16.90;99.90
13589;DHT22;6865;52.552;13.434;2023-04-24T12:00:40;16.90;99.90
13589;DHT22;6865;52.552;13.434;2023-04-24T12:03:10;16.80;99.90
13589;DHT22;6865;52.552;13.434;2023-04-24T12:05:39;16.70;99.90
13589;DHT22;6865;52.552;13.434;2023-04-24T12:08:06;16.80;99.90
13589;DHT22;6865;52.552;13.434;2023-04-24T12:10:33;16.90;99.90
13589;DHT22;6865;52.552;13.434;2023-04-24T12:13:01;17.10;99.90
13589;DHT22;6865;52.552;13.434;2023-04-24T12:15:28;17.30;99.90
13589;DHT22;6865;52.552;13.434;2023-04-24T12:17:55;17.40;99.90
13589;DHT22;6865;52.552;13.434;2023-04-24T12:20:28;17.30;99.90
13589;DHT22;6865;52.552;13.434;2023-04-24T12:22:56;17.40;99.90
13589;DHT22;6865;52.552;13.434;2023-04-24T12:25:27;17.40;99.90
13589;DHT22;6865;52.552;13.434;2023-04-24T12:30:32;17.40;99.90
13589;DHT22;6865;52.552;13.434;2023-04-24T12:33:00;17.00;99.90
13589;DHT22;6865;52.552;13.434;2023-04-24T12:35:29;17.00;99.90
13589;DHT22;6865;52.552;13.434;2023-04-24T12:37:56;17.10;99.90
13589;DHT22;6865;52.552;13.434;2023-04-24T12:40:31;17.10;99.90
13589;DHT22;6865;52.552;13.434;2023-04-24T12:42:58;17.30;99.90
13589;DHT22;6865;52.552;13.434;2023-04-24T12:45:25;17.50;99.90
13589;DHT22;6865;52.552;13.434;2023-04-24T12:47:51;17.80;97.10
13589;DHT22;6865;52.552;13.434;2023-04-24T12:50:18;17.90;95.00
13589;DHT22;6865;52.552;13.434;2023-04-24T12:52:45;18.00;92.90
13589;DHT22;6865;52.552;13.434;2023-04-24T12:55:12;18.10;91.50
13589;DHT22;6865;52.552;13.434;2023-04-24T12:57:39;18.30;91.20
13589;DHT22;6865;52.552;13.434;2023-04-24T13:00:07;18.50;90.50
13589;DHT22;6865;52.552;13.434;2023-04-24T13:02:34;18.50;89.40
13589;DHT22;6865;52.552;13.434;2023-04-24T13:05:02;18.30;85.20
13589;DHT22;6865;52.552;13.434;2023-04-24T13:07:29;18.30;83.60
13589;DHT22;6865;52.552;13.434;2023-04-24T13:09:56;18.30;83.40
13589;DHT22;6865;52.552;13.434;2023-04-24T13:12:24;18.30;84.40
13589;DHT22;6865;52.552;13.434;2023-04-24T13:14:51;18.10;90.80
13589;DHT22;6865;52.552;13.434;2023-04-24T13:17:18;18.00;91.50
13589;DHT22;6865;52.552;13.434;2023-04-24T13:19:45;17.90;91.90
13589;DHT22;6865;52.552;13.434;2023-04-24T13:22:13;17.90;92.00
13589;DHT22;6865;52.552;13.434;2023-04-24T13:24:39;17.90;92.00
13589;DHT22;6865;52.552;13.434;2023-04-24T13:27:08;18.10;91.40
13589;DHT22;6865;52.552;13.434;2023-04-24T13:29:36;17.90;91.40
13589;DHT22;6865;52.552;13.434;2023-04-24T13:32:03;18.30;91.60
13589;DHT22;6865;52.552;13.434;2023-04-24T13:34:30;18.40;91.40
13589;DHT22;6865;52.552;13.434;2023-04-24T13:36:57;18.70;87.80
13589;DHT22;6865;52.552;13.434;2023-04-24T13:39:25;18.50;80.50
13589;DHT22;6865;52.552;13.434;2023-04-24T13:41:53;18.40;80.80
13589;DHT22;6865;52.552;13.434;2023-04-24T13:44:21;18.20;82.60
13589;DHT22;6865;52.552;13.434;2023-04-24T13:46:52;18.00;86.80
13589;DHT22;6865;52.552;13.434;2023-04-24T13:49:21;18.00;91.20
13589;DHT22;6865;52.552;13.434;2023-04-24T13:51:47;18.00;91.60
13589;DHT22;6865;52.552;13.434;2023-04-24T13:54:14;18.10;91.00
13589;DHT22;6865;52.552;13.434;2023-04-24T13:56:41;17.90;87.90
13589;DHT22;6865;52.552;13.434;2023-04-24T13:59:08;17.70;85.50
13589;DHT22;6865;52.552;13.434;2023-04-24T14:01:35;17.60;87.70
13589;DHT22;6865;52.552;13.434;2023-04-24T14:04:02;17.50;86.80
13589;DHT22;6865;52.552;13.434;2023-04-24T14:06:29;17.60;83.40
13589;DHT22;6865;52.552;13.434;2023-04-24T14:08:56;17.60;80.40
13589;DHT22;6865;52.552;13.434;2023-04-24T14:11:23;17.70;79.80
13589;DHT22;6865;52.552;13.434;2023-04-24T14:13:50;17.70;77.50
13589;DHT22;6865;52.552;13.434;2023-04-24T14:16:16;17.60;78.20
13589;DHT22;6865;52.552;13.434;2023-04-24T14:18:43;18.10;78.90
13589;DHT22;6865;52.552;13.434;2023-04-24T14:21:11;17.60;79.00
13589;DHT22;6865;52.552;13.434;2023-04-24T14:23:38;17.80;78.20
13589;DHT22;6865;52.552;13.434;2023-04-24T14:26:05;17.90;76.40
13589;DHT22;6865;52.552;13.434;2023-04-24T14:28:32;17.70;76.50
13589;DHT22;6865;52.552;13.434;2023-04-24T14:30:59;17.70;76.20
13589;DHT22;6865;52.552;13.434;2023-04-24T14:33:26;17.60;76.20
13589;DHT22;6865;52.552;13.434;2023-04-24T14:35:52;17.30;76.30
13589;DHT22;6865;52.552;13.434;2023-04-24T14:38:19;17.20;76.70
13589;DHT22;6865;52.552;13.434;2023-04-24T14:40:46;17.40;76.80
13589;DHT22;6865;52.552;13.434;2023-04-24T14:43:15;17.60;76.40
13589;DHT22;6865;52.552;13.434;2023-04-24T14:45:42;17.70;75.00
13589;DHT22;6865;52.552;13.434;2023-04-24T14:48:09;17.70;74.10
13589;DHT22;6865;52.552;13.434;2023-04-24T14:50:37;17.50;73.70
13589;DHT22;6865;52.552;13.434;2023-04-24T14:53:04;17.40;73.10
13589;DHT22;6865;52.552;13.434;2023-04-24T14:55:31;17.50;73.30
13589;DHT22;6865;52.552;13.434;2023-04-24T14:58:05;17.40;73.90
13589;DHT22;6865;52.552;13.434;2023-04-24T15:00:32;17.40;75.30
13589;DHT22;6865;52.552;13.434;2023-04-24T15:03:00;17.30;75.90
13589;DHT22;6865;52.552;13.434;2023-04-24T15:05:27;17.30;76.00
13589;DHT22;6865;52.552;13.434;2023-04-24T15:07:54;17.00;75.50
13589;DHT22;6865;52.552;13.434;2023-04-24T15:10:21;16.80;76.90
13589;DHT22;6865;52.552;13.434;2023-04-24T15:12:49;16.90;78.20
13589;DHT22;6865;52.552;13.434;2023-04-24T15:15:16;16.90;78.40
13589;DHT22;6865;52.552;13.434;2023-04-24T15:17:45;17.00;78.40
13589;DHT22;6865;52.552;13.434;2023-04-24T15:20:12;17.00;77.60
13589;DHT22;6865;52.552;13.434;2023-04-24T15:22:38;17.10;77.80
13589;DHT22;6865;52.552;13.434;2023-04-24T15:25:05;17.20;77.20
13589;DHT22;6865;52.552;13.434;2023-04-24T15:27:45;17.10;76.90
13589;DHT22;6865;52.552;13.434;2023-04-24T15:30:13;17.20;77.30
13589;DHT22;6865;52.552;13.434;2023-04-24T15:32:40;17.30;77.30
13589;DHT22;6865;52.552;13.434;2023-04-24T15:35:07;17.00;77.20
13589;DHT22;6865;52.552;13.434;2023-04-24T15:37:36;16.90;78.20
13589;DHT22;6865;52.552;13.434;2023-04-24T15:40:05;16.80;77.40